createdAt,value
2022-12-11T00:00:24.829Z,100842.38
2022-12-11T00:01:30.040Z,100839.13
2022-12-11T00:02:16.557Z,100842.66
2022-12-11T00:03:03.480Z,100841.09
2022-12-11T00:03:50.103Z,100840.34
2022-12-11T00:04:36.851Z,100843.19
2022-12-11T00:05:23.996Z,100840.09
2022-12-11T00:06:13.919Z,100840.81
2022-12-11T00:07:02.758Z,100837.47
2022-12-11T00:07:49.484Z,100843.56
2022-12-11T00:08:36.733Z,100836.88
2022-12-11T00:09:23.429Z,100846.00
2022-12-11T00:10:10.063Z,100841.66
2022-12-11T00:10:56.481Z,100840.22
2022-12-11T00:11:42.999Z,100844.66
2022-12-11T00:12:30.578Z,100840.63
2022-12-11T00:13:17.348Z,100840.03
2022-12-11T00:14:03.922Z,100832.94
2022-12-11T00:14:50.469Z,100834.72
2022-12-11T00:15:38.230Z,100838.25
2022-12-11T00:16:27.058Z,100836.09
2022-12-11T00:17:13.889Z,100843.28
2022-12-11T00:18:00.367Z,100832.38
2022-12-11T00:18:47.144Z,100832.47
2022-12-11T00:19:34.275Z,100837.59
2022-12-11T00:20:21.454Z,100840.75
2022-12-11T00:21:12.977Z,100836.66
2022-12-11T00:21:59.823Z,100837.88
2022-12-11T00:22:46.318Z,100838.53
2022-12-11T00:23:36.228Z,100837.53
2022-12-11T00:24:22.819Z,100835.00
2022-12-11T00:25:12.633Z,100847.31
2022-12-11T00:25:59.317Z,100834.63
2022-12-11T00:26:47.199Z,100833.72
2022-12-11T00:27:34.648Z,100838.66
2022-12-11T00:28:21.731Z,100841.00
2022-12-11T00:29:14.507Z,100843.34
2022-12-11T00:30:01.050Z,100841.25
2022-12-11T00:30:48.288Z,100840.41
2022-12-11T00:31:35.521Z,100843.81
2022-12-11T00:32:22.240Z,100841.25
2022-12-11T00:33:10.097Z,100841.25
2022-12-11T00:33:56.594Z,100844.72
2022-12-11T00:34:43.325Z,100844.03
2022-12-11T00:35:32.665Z,100840.88
2022-12-11T00:36:25.068Z,100839.44
2022-12-11T00:37:11.744Z,100835.97
2022-12-11T00:37:58.454Z,100835.00
2022-12-11T00:38:44.999Z,100833.53
2022-12-11T00:39:31.762Z,100831.63
2022-12-11T00:40:18.452Z,100839.56
2022-12-11T00:41:07.386Z,100830.19
2022-12-11T00:41:54.188Z,100842.00
2022-12-11T00:42:42.489Z,100832.66
2022-12-11T00:43:29.001Z,100835.88
2022-12-11T00:44:18.281Z,100832.22
2022-12-11T00:45:08.068Z,100838.25
2022-12-11T00:45:54.734Z,100843.56
2022-12-11T00:46:41.398Z,100844.66
2022-12-11T00:47:27.854Z,100845.22
2022-12-11T00:48:14.580Z,100842.00
2022-12-11T00:49:01.716Z,100842.91
2022-12-11T00:49:50.155Z,100843.75
2022-12-11T00:50:38.397Z,100839.44
2022-12-11T00:51:26.127Z,100842.56
2022-12-11T00:52:12.660Z,100835.78
2022-12-11T00:52:59.777Z,100835.78
2022-12-11T00:53:46.762Z,100841.66
2022-12-11T00:54:34.347Z,100839.91
2022-12-11T00:55:20.975Z,100835.56
2022-12-11T00:56:16.592Z,100835.09
2022-12-11T00:57:03.279Z,100833.72
2022-12-11T00:57:51.875Z,100827.75
2022-12-11T00:58:43.447Z,100832.88
2022-12-11T00:59:30.026Z,100827.63
2022-12-11T01:00:16.803Z,100821.22
2022-12-11T01:01:10.075Z,100826.44
2022-12-11T01:01:56.851Z,100828.00
2022-12-11T01:02:43.357Z,100827.53
2022-12-11T01:03:30.053Z,100821.41
2022-12-11T01:04:17.658Z,100822.78
2022-12-11T01:05:07.448Z,100826.03
2022-12-11T01:05:54.885Z,100833.91
2022-12-11T01:06:41.569Z,100830.47
2022-12-11T01:07:28.154Z,100827.09
2022-12-11T01:08:15.843Z,100828.69
2022-12-11T01:09:20.956Z,100824.94
2022-12-11T01:10:26.235Z,100834.38
2022-12-11T01:11:15.779Z,100825.25
2022-12-11T01:12:02.579Z,100821.00
2022-12-11T01:12:50.202Z,100823.47
2022-12-11T01:13:37.990Z,100825.06
2022-12-11T01:14:24.683Z,100827.50
2022-12-11T01:15:12.119Z,100827.50
2022-12-11T01:15:59.088Z,100831.16
2022-12-11T01:16:45.820Z,100826.81
2022-12-11T01:17:32.419Z,100826.03
2022-12-11T01:18:19.011Z,100834.59
2022-12-11T01:19:05.854Z,100826.31
2022-12-11T01:19:54.379Z,100836.75
2022-12-11T01:20:43.231Z,100825.75
2022-12-11T01:21:29.902Z,100828.09
2022-12-11T01:22:16.409Z,100832.66
2022-12-11T01:23:03.096Z,100838.25
2022-12-11T01:23:50.959Z,100836.59
2022-12-11T01:24:38.040Z,100832.38
2022-12-11T01:25:28.867Z,100838.38
2022-12-11T01:26:15.820Z,100839.44
2022-12-11T01:27:02.394Z,100841.22
2022-12-11T01:27:51.839Z,100837.00
2022-12-11T01:28:39.189Z,100836.50
2022-12-11T01:29:28.071Z,100839.19
2022-12-11T01:30:14.808Z,100833.75
2022-12-11T01:31:01.541Z,100840.63
2022-12-11T01:31:48.109Z,100833.75
2022-12-11T01:32:35.928Z,100829.53
2022-12-11T01:33:22.771Z,100833.94
2022-12-11T01:34:10.260Z,100830.59
2022-12-11T01:34:56.756Z,100824.50
2022-12-11T01:35:43.226Z,100824.63
2022-12-11T01:36:29.862Z,100825.59
2022-12-11T01:37:16.504Z,100822.94
2022-12-11T01:38:05.668Z,100817.59
2022-12-11T01:38:54.247Z,100821.84
2022-12-11T01:39:40.899Z,100822.72
2022-12-11T01:40:27.584Z,100821.94
2022-12-11T01:41:15.653Z,100829.63
2022-12-11T01:42:06.806Z,100821.75
2022-12-11T01:42:53.363Z,100816.44
2022-12-11T01:43:59.341Z,100826.97
2022-12-11T01:44:45.773Z,100816.63
2022-12-11T01:45:52.662Z,100819.09
2022-12-11T01:46:39.328Z,100821.75
2022-12-11T01:47:26.035Z,100821.66
2022-12-11T01:48:18.467Z,100818.97
2022-12-11T01:49:12.935Z,100817.81
2022-12-11T01:49:59.828Z,100817.81
2022-12-11T01:50:55.124Z,100818.78
2022-12-11T01:51:50.217Z,100821.94
2022-12-11T01:52:36.856Z,100815.94
2022-12-11T01:53:39.326Z,100813.59
2022-12-11T01:54:29.041Z,100814.56
2022-12-11T01:55:17.873Z,100823.22
2022-12-11T01:56:06.786Z,100817.22
2022-12-11T01:56:58.405Z,100815.63
2022-12-11T01:57:50.986Z,100813.00
2022-12-11T01:58:45.650Z,100818.91
2022-12-11T01:59:37.404Z,100820.66
2022-12-11T02:00:24.375Z,100820.56
2022-12-11T02:01:20.572Z,100815.16
2022-12-11T02:02:10.373Z,100819.50
2022-12-11T02:02:57.142Z,100822.03
2022-12-11T02:03:44.133Z,100818.78
2022-12-11T02:04:33.141Z,100814.56
2022-12-11T02:05:19.799Z,100813.97
2022-12-11T02:06:06.549Z,100811.44
2022-12-11T02:06:53.317Z,100814.56
2022-12-11T02:07:54.199Z,100801.66
2022-12-11T02:08:40.786Z,100810.31
2022-12-11T02:09:32.623Z,100814.78
2022-12-11T02:10:19.643Z,100811.50
2022-12-11T02:11:20.222Z,100816.75
2022-12-11T02:12:15.876Z,100816.53
2022-12-11T02:13:19.019Z,100810.25
2022-12-11T02:14:17.500Z,100820.34
2022-12-11T02:15:41.125Z,100807.47
2022-12-11T02:16:45.674Z,100813.38
2022-12-11T02:18:04.804Z,100815.16
2022-12-11T02:18:57.205Z,100818.69
2022-12-11T02:20:06.017Z,100811.91
2022-12-11T02:21:13.075Z,100815.25
2022-12-11T02:22:13.096Z,100807.47
2022-12-11T02:23:02.481Z,100811.50
2022-12-11T02:24:13.006Z,100808.75
2022-12-11T02:25:17.511Z,100811.63
2022-12-11T02:26:34.728Z,100814.25
2022-12-11T02:27:50.403Z,100804.03
2022-12-11T02:28:48.979Z,100805.41
2022-12-11T02:29:59.213Z,100804.41
2022-12-11T02:30:54.499Z,100801.97
2022-12-11T02:31:53.636Z,100810.53
2022-12-11T02:33:01.332Z,100809.66
2022-12-11T02:34:03.061Z,100794.91
2022-12-11T02:35:03.273Z,100799.31
2022-12-11T02:35:53.963Z,100800.78
2022-12-11T02:36:48.901Z,100801.00
2022-12-11T02:37:41.151Z,100800.00
2022-12-11T02:38:39.319Z,100800.22
2022-12-11T02:39:29.308Z,100796.75
2022-12-11T02:40:26.401Z,100802.19
2022-12-11T02:41:13.393Z,100795.88
2022-12-11T02:42:03.898Z,100796.06
2022-12-11T02:42:53.268Z,100799.50
2022-12-11T02:43:43.311Z,100798.25
2022-12-11T02:44:34.363Z,100794.91
2022-12-11T02:45:24.257Z,100793.31
2022-12-11T02:46:12.437Z,100804.53
2022-12-11T02:47:01.107Z,100799.50
2022-12-11T02:47:50.389Z,100802.06
2022-12-11T02:48:38.033Z,100798.53
2022-12-11T02:49:28.012Z,100791.75
2022-12-11T02:50:20.032Z,100797.66
2022-12-11T02:51:10.889Z,100799.50
2022-12-11T02:52:03.345Z,100805.72
2022-12-11T02:52:57.724Z,100796.56
2022-12-11T02:53:47.275Z,100795.75
2022-12-11T02:54:40.370Z,100787.88
2022-12-11T02:55:32.387Z,100798.13
2022-12-11T02:56:30.906Z,100793.78
2022-12-11T02:57:28.713Z,100799.69
2022-12-11T02:58:21.878Z,100788.47
2022-12-11T02:59:24.506Z,100792.13
2022-12-11T03:00:11.845Z,100798.84
2022-12-11T03:01:01.912Z,100792.03
2022-12-11T03:01:51.545Z,100790.16
2022-12-11T03:02:42.196Z,100786.31
2022-12-11T03:03:30.655Z,100794.22
2022-12-11T03:04:17.614Z,100789.19
2022-12-11T03:05:08.580Z,100792.72
2022-12-11T03:05:57.285Z,100790.09
2022-12-11T03:06:51.432Z,100784.00
2022-12-11T03:07:41.172Z,100779.53
2022-12-11T03:08:28.062Z,100785.34
2022-12-11T03:09:14.973Z,100782.00
2022-12-11T03:10:01.603Z,100793.22
2022-12-11T03:10:49.423Z,100790.09
2022-12-11T03:11:36.082Z,100787.22
2022-12-11T03:12:31.350Z,100787.81
2022-12-11T03:13:22.401Z,100788.41
2022-12-11T03:14:09.699Z,100780.59
2022-12-11T03:15:03.333Z,100784.25
2022-12-11T03:16:11.820Z,100785.34
2022-12-11T03:17:10.952Z,100790.66
2022-12-11T03:18:18.996Z,100789.00
2022-12-11T03:19:27.713Z,100784.00
2022-12-11T03:20:41.613Z,100786.44
2022-12-11T03:21:40.784Z,100784.78
2022-12-11T03:22:43.808Z,100783.88
2022-12-11T03:23:52.718Z,100789.78
2022-12-11T03:24:53.178Z,100786.03
2022-12-11T03:25:58.205Z,100786.13
2022-12-11T03:26:56.635Z,100791.44
2022-12-11T03:27:48.710Z,100792.22
2022-12-11T03:28:49.523Z,100791.03
2022-12-11T03:29:42.596Z,100790.06
2022-12-11T03:30:35.414Z,100793.72
2022-12-11T03:31:27.779Z,100793.41
2022-12-11T03:32:23.012Z,100790.44
2022-12-11T03:33:25.915Z,100802.78
2022-12-11T03:34:28.472Z,100794.31
2022-12-11T03:35:29.726Z,100803.84
2022-12-11T03:36:27.308Z,100795.50
2022-12-11T03:37:16.637Z,100795.50
2022-12-11T03:38:21.106Z,100799.63
2022-12-11T03:39:15.308Z,100795.69
2022-12-11T03:40:10.607Z,100798.03
2022-12-11T03:41:02.232Z,100799.69
2022-12-11T03:41:52.669Z,100795.28
2022-12-11T03:42:43.542Z,100794.50
2022-12-11T03:43:32.401Z,100798.50
2022-12-11T03:44:22.009Z,100797.25
2022-12-11T03:45:13.454Z,100789.19
2022-12-11T03:46:01.910Z,100796.06
2022-12-11T03:46:52.436Z,100791.50
2022-12-11T03:47:42.308Z,100798.63
2022-12-11T03:48:35.925Z,100801.06
2022-12-11T03:49:29.146Z,100792.72
2022-12-11T03:50:21.044Z,100789.47
2022-12-11T03:51:08.911Z,100782.78
2022-12-11T03:51:59.901Z,100785.91
2022-12-11T03:52:48.263Z,100785.06
2022-12-11T03:53:37.326Z,100781.78
2022-12-11T03:54:25.192Z,100788.41
2022-12-11T03:55:15.011Z,100784.16
2022-12-11T03:56:04.566Z,100783.56
2022-12-11T03:56:56.883Z,100785.34
2022-12-11T03:57:44.136Z,100783.88
2022-12-11T03:58:30.670Z,100783.88
2022-12-11T03:59:17.536Z,100790.84
2022-12-11T04:00:07.308Z,100784.94
2022-12-11T04:00:58.325Z,100789.38
2022-12-11T04:01:44.927Z,100783.28
2022-12-11T04:02:31.773Z,100779.75
2022-12-11T04:03:18.552Z,100784.75
2022-12-11T04:04:05.253Z,100786.13
2022-12-11T04:04:52.119Z,100789.59
2022-12-11T04:05:40.363Z,100780.03
2022-12-11T04:06:27.036Z,100774.22
2022-12-11T04:07:13.688Z,100787.88
2022-12-11T04:08:03.204Z,100779.44
2022-12-11T04:08:49.774Z,100786.63
2022-12-11T04:09:36.670Z,100786.44
2022-12-11T04:10:23.403Z,100783.16
2022-12-11T04:11:28.924Z,100784.34
2022-12-11T04:12:15.416Z,100778.25
2022-12-11T04:13:02.029Z,100779.75
2022-12-11T04:14:11.697Z,100782.38
2022-12-11T04:15:04.186Z,100783.97
2022-12-11T04:15:50.967Z,100780.53
2022-12-11T04:16:37.916Z,100780.53
2022-12-11T04:17:43.366Z,100783.88
2022-12-11T04:18:48.614Z,100775.41
2022-12-11T04:19:53.984Z,100774.72
2022-12-11T04:20:58.868Z,100773.25
2022-12-11T04:22:03.928Z,100777.25
2022-12-11T04:23:08.725Z,100780.59
2022-12-11T04:24:13.978Z,100778.66
2022-12-11T04:25:02.238Z,100779.44
2022-12-11T04:25:48.868Z,100776.28
2022-12-11T04:26:35.525Z,100776.19
2022-12-11T04:27:41.746Z,100774.50
2022-12-11T04:28:28.239Z,100774.03
2022-12-11T04:29:15.311Z,100771.66
2022-12-11T04:30:03.702Z,100771.56
2022-12-11T04:30:50.485Z,100774.22
2022-12-11T04:31:36.990Z,100772.53
2022-12-11T04:32:23.705Z,100775.88
2022-12-11T04:33:10.175Z,100769.91
2022-12-11T04:33:56.612Z,100769.72
2022-12-11T04:34:43.127Z,100770.69
2022-12-11T04:35:33.212Z,100771.28
2022-12-11T04:36:19.689Z,100768.00
2022-12-11T04:37:06.175Z,100764.66
2022-12-11T04:37:52.914Z,100768.13
2022-12-11T04:38:40.199Z,100774.91
2022-12-11T04:39:26.685Z,100766.25
2022-12-11T04:40:17.567Z,100774.13
2022-12-11T04:41:10.274Z,100775.22
2022-12-11T04:41:56.997Z,100777.84
2022-12-11T04:42:43.751Z,100771.97
2022-12-11T04:43:30.293Z,100768.41
2022-12-11T04:44:16.780Z,100772.47
2022-12-11T04:45:04.555Z,100777.66
2022-12-11T04:45:51.149Z,100771.06
2022-12-11T04:46:37.932Z,100776.88
2022-12-11T04:47:24.404Z,100776.41
2022-12-11T04:48:13.251Z,100772.53
2022-12-11T04:49:00.253Z,100769.78
2022-12-11T04:49:46.889Z,100769.00
2022-12-11T04:50:33.382Z,100769.13
2022-12-11T04:51:20.088Z,100770.88
2022-12-11T04:52:06.784Z,100767.41
2022-12-11T04:52:57.326Z,100765.38
2022-12-11T04:53:45.257Z,100765.84
2022-12-11T04:54:32.980Z,100768.13
2022-12-11T04:55:19.407Z,100762.91
2022-12-11T04:56:12.270Z,100763.00
2022-12-11T04:56:58.785Z,100759.56
2022-12-11T04:57:45.630Z,100767.22
2022-12-11T04:58:32.132Z,100761.25
2022-12-11T04:59:18.727Z,100756.72
2022-12-11T05:00:07.963Z,100760.94
2022-12-11T05:00:54.647Z,100762.44
2022-12-11T05:01:42.515Z,100761.72
2022-12-11T05:02:29.409Z,100755.94
2022-12-11T05:03:16.627Z,100769.78
2022-12-11T05:04:03.436Z,100763.00
2022-12-11T05:04:50.820Z,100766.75
2022-12-11T05:05:37.629Z,100764.97
2022-12-11T05:06:24.198Z,100758.69
2022-12-11T05:07:10.903Z,100762.22
2022-12-11T05:07:57.445Z,100765.66
2022-12-11T05:08:45.520Z,100763.22
2022-12-11T05:09:32.119Z,100757.09
2022-12-11T05:10:18.607Z,100764.88
2022-12-11T05:11:08.183Z,100758.16
2022-12-11T05:11:54.702Z,100761.81
2022-12-11T05:12:41.452Z,100758.59
2022-12-11T05:13:29.919Z,100759.66
2022-12-11T05:14:16.599Z,100763.19
2022-12-11T05:15:03.643Z,100754.72
2022-12-11T05:15:50.308Z,100756.63
2022-12-11T05:16:36.956Z,100756.03
2022-12-11T05:17:24.082Z,100752.66
2022-12-11T05:18:10.507Z,100751.78
2022-12-11T05:18:57.105Z,100761.13
2022-12-11T05:19:43.762Z,100755.13
2022-12-11T05:20:30.305Z,100751.56
2022-12-11T05:21:16.979Z,100756.81
2022-12-11T05:22:03.459Z,100755.41
2022-12-11T05:22:50.001Z,100758.19
2022-12-11T05:23:37.736Z,100755.00
2022-12-11T05:24:24.314Z,100753.44
2022-12-11T05:25:11.280Z,100754.34
2022-12-11T05:26:01.999Z,100751.59
2022-12-11T05:26:50.912Z,100754.94
2022-12-11T05:27:37.541Z,100755.41
2022-12-11T05:28:25.698Z,100755.31
2022-12-11T05:29:12.209Z,100754.44
2022-12-11T05:29:59.653Z,100755.22
2022-12-11T05:30:46.252Z,100751.78
2022-12-11T05:31:33.157Z,100758.78
2022-12-11T05:32:19.751Z,100746.84
2022-12-11T05:33:06.213Z,100756.28
2022-12-11T05:33:53.834Z,100752.25
2022-12-11T05:34:40.329Z,100751.66
2022-12-11T05:35:26.809Z,100746.13
2022-12-11T05:36:31.896Z,100744.13
2022-12-11T05:37:18.768Z,100736.47
2022-12-11T05:38:05.275Z,100747.97
2022-12-11T05:38:52.916Z,100746.50
2022-12-11T05:39:39.474Z,100745.00
2022-12-11T05:40:26.057Z,100745.78
2022-12-11T05:41:15.752Z,100742.38
2022-12-11T05:42:02.213Z,100749.16
2022-12-11T05:42:48.970Z,100745.53
2022-12-11T05:43:36.993Z,100742.84
2022-12-11T05:44:23.516Z,100736.56
2022-12-11T05:45:12.788Z,100728.69
2022-12-11T05:46:17.439Z,100735.28
2022-12-11T05:47:03.993Z,100735.22
2022-12-11T05:47:50.746Z,100733.53
2022-12-11T05:48:38.820Z,100738.56
2022-12-11T05:49:30.629Z,100735.81
2022-12-11T05:50:17.686Z,100736.41
2022-12-11T05:51:06.125Z,100733.66
2022-12-11T05:51:52.663Z,100728.34
2022-12-11T05:52:39.142Z,100732.56
2022-12-11T05:53:26.082Z,100735.94
2022-12-11T05:54:12.848Z,100732.50
2022-12-11T05:54:59.301Z,100735.25
2022-12-11T05:55:46.236Z,100731.72
2022-12-11T05:56:35.558Z,100727.47
2022-12-11T05:57:22.217Z,100730.13
2022-12-11T05:58:08.715Z,100729.53
2022-12-11T05:58:56.450Z,100733.06
2022-12-11T05:59:45.168Z,100727.03
2022-12-11T06:00:36.041Z,100728.81
2022-12-11T06:01:36.966Z,100740.22
2022-12-11T06:02:23.714Z,100737.66
2022-12-11T06:03:10.545Z,100731.75
2022-12-11T06:03:59.453Z,100734.13
2022-12-11T06:04:46.147Z,100735.03
2022-12-11T06:05:32.669Z,100739.25
2022-12-11T06:06:19.201Z,100734.03
2022-12-11T06:07:05.679Z,100736.59
2022-12-11T06:07:52.403Z,100745.25
2022-12-11T06:08:42.140Z,100743.56
2022-12-11T06:09:28.815Z,100737.41
2022-12-11T06:10:15.577Z,100744.19
2022-12-11T06:11:02.890Z,100744.78
2022-12-11T06:11:49.449Z,100746.53
2022-12-11T06:12:36.177Z,100749.69
2022-12-11T06:13:23.144Z,100741.72
2022-12-11T06:14:13.573Z,100749.41
2022-12-11T06:15:00.251Z,100747.34
2022-12-11T06:15:47.100Z,100747.44
2022-12-11T06:16:34.252Z,100744.88
2022-12-11T06:17:20.990Z,100747.44
2022-12-11T06:18:07.669Z,100737.31
2022-12-11T06:18:58.036Z,100745.00
2022-12-11T06:19:45.130Z,100737.31
2022-12-11T06:20:33.509Z,100744.19
2022-12-11T06:21:23.523Z,100736.72
2022-12-11T06:22:10.049Z,100737.63
2022-12-11T06:22:56.494Z,100740.19
2022-12-11T06:23:45.916Z,100733.97
2022-12-11T06:24:32.468Z,100734.66
2022-12-11T06:25:24.082Z,100736.41
2022-12-11T06:26:11.547Z,100739.69
2022-12-11T06:26:58.299Z,100730.22
2022-12-11T06:27:44.826Z,100732.00
2022-12-11T06:28:34.145Z,100731.09
2022-12-11T06:29:23.568Z,100734.75
2022-12-11T06:30:10.562Z,100736.34
2022-12-11T06:31:01.595Z,100737.31
2022-12-11T06:31:48.882Z,100734.84
2022-12-11T06:32:35.495Z,100731.59
2022-12-11T06:33:23.340Z,100726.59
2022-12-11T06:34:13.022Z,100737.81
2022-12-11T06:34:59.983Z,100731.00
2022-12-11T06:35:46.614Z,100737.03
2022-12-11T06:36:33.300Z,100737.03
2022-12-11T06:37:19.771Z,100743.19
2022-12-11T06:38:06.274Z,100738.06
2022-12-11T06:38:55.018Z,100743.31
2022-12-11T06:39:41.471Z,100741.63
2022-12-11T06:40:27.884Z,100734.66
2022-12-11T06:41:15.014Z,100735.50
2022-12-11T06:42:01.480Z,100733.84
2022-12-11T06:42:48.019Z,100739.97
2022-12-11T06:43:36.943Z,100739.97
2022-12-11T06:44:24.842Z,100736.59
2022-12-11T06:45:11.591Z,100736.69
2022-12-11T06:46:03.588Z,100736.78
2022-12-11T06:46:50.778Z,100730.16
2022-12-11T06:47:37.302Z,100734.59
2022-12-11T06:48:23.861Z,100734.69
2022-12-11T06:49:13.313Z,100730.56
2022-12-11T06:50:00.155Z,100734.00
2022-12-11T06:50:47.184Z,100730.66
2022-12-11T06:51:33.660Z,100734.91
2022-12-11T06:52:22.475Z,100735.59
2022-12-11T06:53:11.281Z,100732.25
2022-12-11T06:53:57.884Z,100733.41
2022-12-11T06:54:44.613Z,100734.97
2022-12-11T06:55:31.235Z,100737.25
2022-12-11T06:56:18.043Z,100732.84
2022-12-11T06:57:06.383Z,100732.06
2022-12-11T06:57:53.318Z,100731.94
2022-12-11T06:58:42.172Z,100739.72
2022-12-11T06:59:28.805Z,100734.50
2022-12-11T07:00:16.739Z,100731.88
2022-12-11T07:01:04.803Z,100734.50
2022-12-11T07:01:51.760Z,100729.38
2022-12-11T07:02:38.509Z,100739.72
2022-12-11T07:03:25.216Z,100737.25
2022-12-11T07:04:11.760Z,100728.59
2022-12-11T07:04:58.274Z,100732.84
2022-12-11T07:05:44.749Z,100738.84
2022-12-11T07:06:31.225Z,100734.69
2022-12-11T07:07:20.640Z,100731.16
2022-12-11T07:08:08.555Z,100735.59
2022-12-11T07:08:56.005Z,100739.03
2022-12-11T07:09:44.992Z,100732.91
2022-12-11T07:10:32.845Z,100739.91
2022-12-11T07:11:20.756Z,100740.72
2022-12-11T07:12:07.544Z,100740.72
2022-12-11T07:12:55.775Z,100743.47
2022-12-11T07:13:42.811Z,100741.69
2022-12-11T07:14:30.461Z,100739.03
2022-12-11T07:15:19.430Z,100744.94
2022-12-11T07:16:10.607Z,100747.41
2022-12-11T07:16:59.983Z,100747.13
2022-12-11T07:17:46.899Z,100749.41
2022-12-11T07:18:33.375Z,100746.66
2022-12-11T07:19:20.091Z,100745.56
2022-12-11T07:20:07.369Z,100754.16
2022-12-11T07:20:54.097Z,100750.78
2022-12-11T07:21:40.805Z,100756.59
2022-12-11T07:22:29.105Z,100744.78
2022-12-11T07:23:15.767Z,100751.78
2022-12-11T07:24:02.322Z,100752.66
2022-12-11T07:24:49.825Z,100751.97
2022-12-11T07:25:37.320Z,100759.47
2022-12-11T07:26:23.906Z,100756.97
2022-12-11T07:27:10.434Z,100753.53
2022-12-11T07:27:58.041Z,100753.63
2022-12-11T07:28:45.924Z,100752.56
2022-12-11T07:29:32.459Z,100754.16
2022-12-11T07:30:19.321Z,100755.91
2022-12-11T07:31:13.713Z,100759.28
2022-12-11T07:32:00.275Z,100762.50
2022-12-11T07:32:47.064Z,100759.75
2022-12-11T07:33:34.131Z,100755.63
2022-12-11T07:34:20.816Z,100763.47
2022-12-11T07:35:07.791Z,100750.50
2022-12-11T07:35:54.414Z,100758.09
2022-12-11T07:36:41.347Z,100757.31
2022-12-11T07:37:27.978Z,100764.97
2022-12-11T07:38:17.156Z,100758.09
2022-12-11T07:39:07.727Z,100756.50
2022-12-11T07:39:54.494Z,100765.19
2022-12-11T07:40:43.451Z,100757.56
2022-12-11T07:41:31.777Z,100754.03
2022-12-11T07:42:21.628Z,100759.94
2022-12-11T07:43:08.319Z,100758.19
2022-12-11T07:43:56.388Z,100762.63
2022-12-11T07:44:42.958Z,100747.06
2022-12-11T07:45:32.127Z,100761.63
2022-12-11T07:46:24.589Z,100761.63
2022-12-11T07:47:13.610Z,100760.06
2022-12-11T07:48:00.203Z,100750.50
2022-12-11T07:48:48.292Z,100753.34
2022-12-11T07:49:35.020Z,100749.50
2022-12-11T07:50:24.063Z,100754.13
2022-12-11T07:51:16.861Z,100754.91
2022-12-11T07:52:03.994Z,100747.31
2022-12-11T07:52:50.734Z,100744.66
2022-12-11T07:53:37.497Z,100744.75
2022-12-11T07:54:23.962Z,100745.34
2022-12-11T07:55:11.223Z,100757.34
2022-12-11T07:56:02.449Z,100745.47
2022-12-11T07:56:53.468Z,100746.31
2022-12-11T07:57:40.801Z,100747.22
2022-12-11T07:58:30.405Z,100742.09
2022-12-11T07:59:17.058Z,100747.22
2022-12-11T08:00:05.100Z,100747.31
2022-12-11T08:00:59.276Z,100745.84
2022-12-11T08:01:47.051Z,100741.59
2022-12-11T08:02:37.225Z,100752.03
2022-12-11T08:03:24.968Z,100750.53
2022-12-11T08:04:12.794Z,100754.69
2022-12-11T08:04:59.365Z,100749.56
2022-12-11T08:05:50.119Z,100748.78
2022-12-11T08:06:41.686Z,100747.97
2022-12-11T08:07:28.439Z,100742.66
2022-12-11T08:08:18.165Z,100747.97
2022-12-11T08:09:08.320Z,100746.78
2022-12-11T08:09:54.782Z,100744.31
2022-12-11T08:10:41.650Z,100742.56
2022-12-11T08:11:28.267Z,100740.47
2022-12-11T08:12:17.129Z,100743.94
2022-12-11T08:13:04.233Z,100745.78
2022-12-11T08:13:50.773Z,100747.47
2022-12-11T08:14:38.769Z,100749.06
2022-12-11T08:15:25.575Z,100747.28
2022-12-11T08:16:14.472Z,100744.91
2022-12-11T08:17:03.660Z,100745.34
2022-12-11T08:17:50.201Z,100745.53
2022-12-11T08:18:37.540Z,100748.47
2022-12-11T08:19:24.174Z,100737.84
2022-12-11T08:20:11.194Z,100741.09
2022-12-11T08:20:57.681Z,100749.56
2022-12-11T08:21:46.825Z,100741.38
2022-12-11T08:22:34.534Z,100751.56
2022-12-11T08:23:21.109Z,100746.25
2022-12-11T08:24:09.376Z,100744.66
2022-12-11T08:24:55.938Z,100746.31
2022-12-11T08:25:42.535Z,100748.09
2022-12-11T08:26:31.580Z,100740.41
2022-12-11T08:27:18.169Z,100747.31
2022-12-11T08:28:06.336Z,100742.28
2022-12-11T08:28:55.384Z,100740.72
2022-12-11T08:29:42.013Z,100736.38
2022-12-11T08:30:28.792Z,100738.25
2022-12-11T08:31:17.996Z,100747.78
2022-12-11T08:32:12.031Z,100742.00
2022-12-11T08:32:59.788Z,100732.63
2022-12-11T08:33:47.905Z,100751.81
2022-12-11T08:34:34.796Z,100745.09
2022-12-11T08:35:24.981Z,100745.19
2022-12-11T08:36:14.722Z,100748.47
2022-12-11T08:37:01.243Z,100751.09
2022-12-11T08:37:47.969Z,100738.22
2022-12-11T08:38:34.959Z,100741.75
2022-12-11T08:39:21.527Z,100749.44
2022-12-11T08:40:10.792Z,100746.88
2022-12-11T08:40:58.439Z,100742.56
2022-12-11T08:41:45.058Z,100744.41
2022-12-11T08:42:31.786Z,100745.38
2022-12-11T08:43:20.978Z,100732.69
2022-12-11T08:44:16.292Z,100740.13
2022-12-11T08:45:03.641Z,100741.28
2022-12-11T08:45:50.651Z,100741.47
2022-12-11T08:46:38.603Z,100737.13
2022-12-11T08:47:27.862Z,100733.78
2022-12-11T08:48:14.872Z,100733.88
2022-12-11T08:49:01.589Z,100742.38
2022-12-11T08:49:48.465Z,100730.06
2022-12-11T08:50:35.057Z,100733.41
2022-12-11T08:51:24.398Z,100732.53
2022-12-11T08:52:10.918Z,100735.97
2022-12-11T08:52:57.763Z,100730.41
2022-12-11T08:53:44.582Z,100729.41
2022-12-11T08:54:37.229Z,100733.75
2022-12-11T08:55:23.870Z,100736.22
2022-12-11T08:56:16.195Z,100737.88
2022-12-11T08:57:05.918Z,100729.03
2022-12-11T08:57:55.411Z,100731.50
2022-12-11T08:58:43.547Z,100738.09
2022-12-11T08:59:30.165Z,100736.34
2022-12-11T09:00:18.667Z,100740.84
2022-12-11T09:01:14.379Z,100734.69
2022-12-11T09:02:01.812Z,100738.72
2022-12-11T09:02:48.794Z,100731.44
2022-12-11T09:03:36.934Z,100738.25
2022-12-11T09:04:23.580Z,100739.81
2022-12-11T09:05:10.989Z,100742.91
2022-12-11T09:05:57.724Z,100746.06
2022-12-11T09:06:44.156Z,100733.16
2022-12-11T09:07:30.647Z,100739.06
2022-12-11T09:08:17.407Z,100744.19
2022-12-11T09:09:04.523Z,100739.66
2022-12-11T09:09:51.155Z,100736.22
2022-12-11T09:10:37.676Z,100741.63
2022-12-11T09:11:27.721Z,100742.72
2022-12-11T09:12:14.998Z,100740.94
2022-12-11T09:13:01.685Z,100741.72
2022-12-11T09:13:51.251Z,100745.47
2022-12-11T09:14:38.187Z,100740.59
2022-12-11T09:15:25.084Z,100739.81
2022-12-11T09:16:18.723Z,100742.66
2022-12-11T09:17:05.477Z,100751.44
2022-12-11T09:17:52.301Z,100749.75
2022-12-11T09:18:40.596Z,100748.88
2022-12-11T09:19:32.066Z,100749.84
2022-12-11T09:20:18.924Z,100750.72
2022-12-11T09:21:13.945Z,100753.28
2022-12-11T09:22:00.652Z,100752.03
2022-12-11T09:22:47.405Z,100749.66
2022-12-11T09:23:35.078Z,100754.00
2022-12-11T09:24:21.655Z,100754.25
2022-12-11T09:25:09.726Z,100750.91
2022-12-11T09:25:59.395Z,100750.72